Date,TemperatureHighF,TemperatureAvgF,TemperatureLowF,DewpointHighF,DewpointAvgF,DewpointLowF,HumidityHigh,HumidityAvg,HumidityLow,PressureMaxIn,PressureMinIn,WindSpeedMaxMPH,WindSpeedAvgMPH,GustSpeedMaxMPH,PrecipitationSumIn
2013-1-1,50,42,36,50,38,31,100,86,66,30.29,29.99,18,6,18,0.01
2013-1-2,45,37,32,34,32,30,96,82,60,30.35,30.23,12,3,13,0.00
2013-1-3,52,40,28,37,32,27,97,74,46,30.46,30.31,17,3,17,0.00
2013-1-4,52,46,40,43,39,34,100,79,57,30.56,30.38,14,4,14,0.05
2013-1-5,61,48,40,43,41,37,100,81,41,30.41,30.22,14,4,14,0.01
2013-1-6,60,44,33,39,32,24,98,67,27,30.45,30.33,16,4,16,0.00
2013-1-7,56,43,28,39,35,27,97,75,46,30.36,30.12,15,3,15,0.00
2013-1-8,51,50,48,51,47,39,100,90,70,30.13,29.99,17,4,17,2.42
2013-1-9,60,56,50,60,56,50,100,100,100,30.15,29.96,26,8,26,1.64
2013-1-10,61,56,51,61,53,48,100,89,72,30.02,29.95,20,6,20,0.10
2013-1-11,75,61,48,64,53,46,98,77,51,29.98,29.78,28,8,28,0.00
2013-1-12,67,55,37,67,50,31,100,85,55,30.03,29.74,25,7,26,0.00
2013-1-13,45,37,32,31,26,23,78,65,48,30.32,30.00,23,8,23,0.00
2013-1-14,48,37,30,30,26,22,80,65,41,30.37,30.22,17,7,19,0.00
2013-1-15,41,36,32,34,30,26,98,78,60,30.29,30.20,18,7,19,0.04
2013-1-16,53,40,28,37,27,19,86,63,29,30.35,30.19,14,2,15,0.00
2013-1-17,64,48,36,39,34,30,85,62,31,30.54,30.29,16,4,16,0.00
2013-1-18,66,49,32,41,37,31,99,68,30,30.55,30.29,16,5,16,0.00
2013-1-19,69,55,41,48,44,39,93,67,38,30.29,30.14,18,6,20,0.00
2013-1-20,72,54,40,52,44,38,100,74,29,30.26,30.09,12,2,12,0.00
2013-1-21,60,49,42,44,37,30,96,66,39,30.35,30.15,17,5,20,0.00
2013-1-22,71,54,40,52,43,33,85,67,44,30.35,30.18,13,3,13,0.00
2013-1-23,78,64,52,57,54,50,97,73,43,30.32,30.15,17,7,18,0.00
2013-1-24,86,66,53,60,53,44,100,70,24,30.21,30.04,18,5,18,0.00
2013-1-25,53,49,46,48,45,42,99,87,76,30.24,30.07,13,4,14,0.00
2013-1-26,60,52,42,54,48,41,100,86,59,30.26,30.11,14,4,14,0.00
2013-1-27,79,66,54,66,60,54,100,82,48,30.11,29.94,30,10,30,0.00
2013-1-28,81,73,67,68,65,60,98,78,51,30.02,29.85,26,11,26,0.00
2013-1-29,81,68,55,67,57,30,98,70,32,29.87,29.48,32,11,32,0.49
2013-1-30,56,48,37,38,30,20,84,53,27,30.19,29.74,36,9,38,0.00
2013-1-31,71,52,33,37,30,21,89,51,16,30.32,30.13,26,6,38,0.00
2013-2-1,62,48,32,42,33,23,75,57,34,30.42,30.17,18,6,23,0.00
2013-2-2,69,57,48,47,41,29,87,58,24,30.36,30.17,18,5,18,0.00
2013-2-3,71,56,37,45,34,22,97,54,17,30.37,30.02,20,6,21,0.00
2013-2-4,79,66,59,58,51,32,91,60,34,30.02,29.79,21,6,21,0.00
2013-2-5,73,62,57,62,59,56,100,91,61,30.05,29.89,14,4,15,0.00
2013-2-6,76,66,61,65,61,56,100,84,52,30.04,29.86,21,8,22,0.00
2013-2-7,79,66,54,62,55,40,92,69,27,30.18,29.87,23,10,24,0.00
2013-2-8,66,55,44,45,34,16,81,50,17,30.31,30.14,16,5,16,0.00
2013-2-9,62,55,51,62,52,38,100,92,59,30.16,29.74,26,10,26,0.01
2013-2-10,70,60,48,68,41,19,100,55,15,30.05,29.66,27,5,27,0.63
2013-2-11,60,54,49,48,40,32,88,60,40,30.18,30.01,22,7,22,0.00
2013-2-12,54,50,43,52,48,39,100,92,80,30.12,29.91,23,6,23,0.15
2013-2-13,61,49,39,42,38,33,96,69,36,30.21,30.06,20,4,22,0.00
2013-2-14,72,56,41,44,37,24,96,58,16,30.14,30.00,15,4,15,0.00
2013-2-15,57,49,37,41,32,21,79,55,32,30.44,30.11,23,7,24,0.00
2013-2-16,63,46,30,38,32,28,92,61,29,30.46,30.19,14,3,15,0.00
2013-2-17,75,59,43,49,35,19,78,46,13,30.19,29.92,34,10,34,0.00
2013-2-18,78,64,52,57,45,29,77,53,18,30.18,29.82,32,11,32,0.00
2013-2-19,64,53,41,43,31,17,81,47,18,30.36,30.15,21,6,21,0.03
2013-2-20,53,48,46,46,42,38,93,80,58,30.18,29.77,25,10,25,0.13
2013-2-21,70,56,45,54,42,22,100,68,17,29.97,29.61,32,8,33,0.07
2013-2-22,53,42,32,40,31,25,88,68,44,30.20,29.96,17,6,18,0.00
2013-2-23,61,46,34,37,34,31,90,64,38,30.14,29.93,14,3,14,0.00
2013-2-24,72,56,39,48,42,36,87,62,37,29.95,29.61,25,10,28,0.00
2013-2-25,61,52,41,55,42,32,92,72,44,29.78,29.56,38,12,39,0.00
2013-2-26,62,48,39,38,35,32,81,62,35,29.96,29.78,33,7,38,0.00
2013-2-27,59,48,39,36,32,20,84,56,25,30.29,29.89,26,8,29,0.00
2013-2-28,61,47,35,36,31,24,89,58,26,30.36,30.22,23,6,28,0.00
2013-3-1,62,46,34,37,33,25,93,63,26,30.36,30.19,26,4,26,0.00
2013-3-2,61,46,32,36,31,25,95,61,32,30.48,30.26,16,5,19,0.00
2013-3-3,78,60,42,37,32,26,67,39,15,30.26,29.81,34,11,34,0.00
2013-3-4,89,72,57,45,34,15,64,31,8,29.85,29.64,32,9,32,0.00
2013-3-5,59,51,37,45,26,14,71,41,18,30.41,29.84,39,11,39,0.00
2013-3-6,64,48,30,33,26,16,89,47,16,30.50,30.21,14,4,15,0.00
2013-3-7,73,58,43,47,34,19,65,44,16,30.27,30.09,24,8,24,0.00
2013-3-8,64,60,58,62,57,46,99,87,65,30.20,29.99,23,11,23,0.00
2013-3-9,78,66,60,69,63,59,100,90,65,29.99,29.67,30,12,31,0.77
2013-3-10,62,54,42,61,41,33,100,63,44,30.14,29.77,34,8,34,0.02
2013-3-11,65,50,35,36,30,22,78,50,22,30.20,30.03,19,5,19,0.00
2013-3-12,71,56,45,36,34,30,69,45,25,30.36,30.07,21,7,22,0.00
2013-3-13,71,58,43,45,40,34,92,54,31,30.48,30.32,16,5,16,0.00
2013-3-14,80,65,51,49,44,39,78,51,24,30.38,30.19,22,8,23,0.00
2013-3-15,84,70,57,56,48,39,87,51,22,30.20,29.92,25,10,28,0.00
2013-3-16,86,72,59,58,52,44,80,52,30,29.92,29.69,25,11,29,0.00
2013-3-17,75,66,57,63,53,46,84,65,44,29.86,29.71,22,6,24,0.00
2013-3-18,72,64,58,64,51,44,100,66,42,30.05,29.67,25,6,28,0.00
2013-3-19,69,60,47,52,45,37,77,59,40,30.16,30.00,18,6,19,0.00
2013-3-20,70,60,49,43,35,19,74,43,19,30.35,30.06,17,6,18,0.00
2013-3-21,75,64,54,60,47,33,79,54,38,30.06,29.55,33,12,33,0.00
2013-3-22,67,55,50,62,52,46,100,89,80,29.87,29.58,24,7,25,0.00
2013-3-23,58,53,46,55,52,45,100,96,85,29.95,29.70,28,6,28,1.30
2013-3-24,55,46,39,52,32,23,95,60,34,30.21,29.88,30,11,32,0.00
2013-3-25,57,45,33,31,26,17,88,51,23,30.43,30.21,22,6,22,0.00
2013-3-26,62,48,30,33,29,23,95,53,26,30.53,30.30,12,3,13,0.00
2013-3-27,73,58,44,48,38,31,66,49,33,30.31,30.09,30,11,30,0.00
2013-3-28,74,64,54,59,55,48,96,74,55,30.24,30.09,22,10,24,0.00
2013-3-29,76,69,60,61,59,57,100,73,52,30.21,30.00,26,10,28,0.00
2013-3-30,81,70,59,66,62,52,100,77,50,30.14,29.89,24,7,25,0.78
2013-3-31,77,70,63,67,59,53,99,72,48,30.03,29.85,31,6,31,0.00
2013-4-1,82,69,53,62,54,48,100,64,31,30.12,29.95,16,5,18,0.00
2013-4-2,75,66,57,68,62,50,100,88,46,30.06,29.91,31,7,33,0.37
2013-4-3,58,51,47,57,51,47,100,99,76,30.20,29.88,30,8,32,2.24
2013-4-4,51,47,44,48,44,42,100,90,77,30.26,30.17,16,6,18,0.02
2013-4-5,70,55,40,52,47,40,100,77,46,30.32,30.05,15,4,16,0.00
2013-4-6,81,68,56,61,54,48,81,64,44,30.06,29.85,26,11,27,0.00
2013-4-7,77,69,62,65,62,60,98,81,65,29.93,29.74,30,12,32,0.00
2013-4-8,78,72,68,68,64,62,85,77,65,29.78,29.67,29,13,29,0.00
2013-4-9,82,75,71,71,66,64,97,75,57,29.73,29.64,27,13,29,0.00
2013-4-10,77,46,39,69,42,37,100,88,65,30.02,29.73,25,9,25,2.39
2013-4-11,66,52,42,46,40,34,88,66,38,30.02,29.84,14,4,14,0.00
2013-4-12,79,62,45,53,47,41,96,61,27,30.02,29.87,19,4,22,0.00
2013-4-13,78,68,56,54,48,40,81,52,29,29.99,29.80,24,9,24,0.00
2013-4-14,91,73,58,67,59,48,94,65,27,29.82,29.55,25,9,30,0.02
2013-4-15,89,78,69,70,67,63,100,71,43,29.77,29.62,27,11,27,0.00
2013-4-16,86,78,71,70,66,64,94,69,49,29.90,29.76,25,12,25,0.00
2013-4-17,85,78,73,74,69,65,100,75,52,29.90,29.64,32,14,33,0.00
2013-4-18,79,57,47,72,47,37,100,73,48,30.19,29.58,33,11,33,1.10
2013-4-19,66,58,47,42,33,24,73,41,21,30.33,30.16,21,6,21,0.00
2013-4-20,72,59,45,42,36,23,80,46,18,30.22,30.02,26,9,31,0.00
2013-4-21,72,62,51,56,51,40,90,68,51,30.22,30.06,18,9,24,0.00
2013-4-22,83,69,55,61,57,52,100,67,40,30.12,29.84,28,10,28,0.00
2013-4-23,71,55,43,64,50,40,94,81,69,30.24,29.81,25,10,26,0.04
2013-4-24,63,51,38,45,38,34,94,64,38,30.36,30.23,20,7,20,0.09
2013-4-25,74,64,54,50,44,39,66,50,31,30.37,30.15,19,6,21,0.00
2013-4-26,80,69,62,70,61,48,100,77,58,30.18,29.99,26,9,28,0.01
2013-4-27,78,70,61,71,62,56,98,77,49,30.16,30.02,15,5,28,0.08
2013-4-28,84,71,54,68,62,54,100,76,50,30.08,29.87,16,5,17,0.00
2013-4-29,87,76,64,68,62,47,100,65,27,29.94,29.80,23,8,23,0.00
2013-4-30,83,73,62,67,63,60,100,74,48,29.86,29.75,22,8,22,0.00
2013-5-1,84,74,67,70,66,63,100,78,52,30.00,29.79,19,7,19,0.00
2013-5-2,74,51,44,65,46,39,98,83,70,30.39,30.00,31,10,32,0.11
2013-5-3,68,54,40,40,34,23,88,54,19,30.38,30.05,27,6,27,0.00
2013-5-4,77,61,43,46,35,25,92,45,16,30.06,29.93,23,5,23,0.00
2013-5-5,73,60,48,50,46,42,84,63,40,30.21,30.06,16,4,17,0.00
2013-5-6,69,56,49,55,51,48,98,85,55,30.17,30.11,8,1,8,0.00
2013-5-9,74,71,67,71,67,62,100,88,69,30.05,29.85,16,4,16,0.66
2013-5-10,82,72,65,71,66,58,100,86,49,30.09,29.89,28,4,29,0.45
2013-5-11,82,71,61,66,56,44,100,64,30,30.20,30.08,20,5,21,0.00
2013-5-12,79,69,60,56,47,36,74,48,23,30.30,30.18,17,4,17,0.00
2013-5-13,89,74,57,55,47,34,76,44,15,30.27,30.14,18,6,18,0.00
2013-5-14,89,77,66,64,57,46,79,52,24,30.20,30.00,25,8,25,0.00
2013-5-15,82,76,69,75,69,64,100,81,66,30.07,29.73,27,11,31,1.79
2013-5-16,87,75,65,75,70,64,100,85,58,29.85,29.75,19,8,19,0.00
2013-5-17,92,82,75,76,74,70,100,79,52,29.87,29.78,22,10,24,0.02
2013-5-18,94,83,73,75,71,66,95,70,40,29.91,29.77,24,11,25,0.00
2013-5-19,91,86,80,70,69,68,65,56,49,29.79,29.68,28,15,29,0.00
2013-5-20,93,82,74,71,69,64,89,66,46,29.83,29.63,44,14,44,0.00
2013-5-21,82,72,62,73,64,57,99,76,60,29.91,29.77,26,7,26,0.13
2013-5-22,88,72,57,67,60,48,100,71,28,29.97,29.87,16,4,16,0.01
2013-5-23,86,79,70,76,72,65,100,80,62,30.11,29.90,25,9,25,0.00
2013-5-24,84,78,68,77,72,66,100,83,61,30.19,29.96,30,7,30,1.47
2013-5-25,82,75,70,76,70,66,100,86,65,30.17,30.04,26,7,28,0.03
2013-5-26,89,80,74,74,72,68,100,77,53,30.09,29.93,22,10,22,0.08
2013-5-27,87,79,72,71,70,0,96,75,56,29.99,29.79,29,10,29,0.10
2013-5-28,86,80,73,71,69,66,87,70,57,29.89,29.72,35,12,36,0.49
2013-5-29,87,78,75,77,71,68,100,80,57,29.82,29.67,38,15,38,0.34
2013-5-30,89,82,76,73,71,69,89,71,52,29.82,29.70,27,13,28,0.00
2013-5-31,93,85,78,74,72,69,87,68,50,29.86,29.69,27,12,29,0.00
2013-6-1,90,82,78,74,71,59,79,70,51,29.98,29.72,29,10,29,0.00
2013-6-2,86,77,67,63,58,48,85,55,29,30.11,29.96,15,4,16,0.00
2013-6-3,92,78,64,64,59,52,86,57,28,30.04,29.86,16,5,16,0.00
2013-6-4,94,83,73,71,66,60,85,59,34,29.95,29.77,25,10,27,0.00
2013-6-5,92,83,75,70,67,61,81,60,39,29.97,29.76,30,8,36,0.00
2013-6-6,82,76,71,73,69,63,100,79,54,29.98,29.84,21,5,21,0.16
2013-6-7,86,76,65,70,61,48,100,65,29,30.06,29.92,15,4,17,0.00
2013-6-8,90,78,64,63,59,53,88,56,31,30.01,29.84,20,6,20,0.00
2013-6-9,90,79,68,71,68,62,100,71,44,29.97,29.86,30,5,30,0.76
2013-6-10,98,84,70,74,64,31,100,59,15,30.01,29.91,17,5,17,0.00
2013-6-11,82,79,77,71,68,64,82,70,55,29.98,29.97,9,5,9,0.00
2013-6-12,94,89,84,69,68,64,61,50,38,30.02,29.94,15,6,15,0.00
2013-6-13,98,87,74,74,68,58,94,56,28,30.10,29.93,14,5,15,0.00
2013-6-14,96,85,73,72,67,61,89,57,35,30.05,29.93,16,3,19,0.01
2013-6-15,92,83,79,74,70,63,81,66,39,30.04,29.91,17,4,18,0.03
2013-6-16,97,87,76,75,70,64,95,60,35,30.06,29.89,17,5,17,0.02
2013-6-17,96,85,71,74,70,66,100,64,39,30.07,29.87,36,7,41,0.19
2013-6-18,89,80,69,77,70,64,100,74,45,30.05,29.91,44,4,44,0.74
2013-6-19,94,80,73,78,72,67,100,81,48,30.02,29.87,32,4,34,0.22
2013-6-20,95,84,74,76,70,64,100,66,37,30.07,29.93,24,8,24,0.01
2013-6-21,96,87,77,75,68,60,92,56,32,30.09,29.98,24,9,24,0.00
2013-6-22,97,86,76,73,66,56,85,53,27,30.06,29.90,25,9,25,0.00
2013-6-23,96,87,77,72,68,60,78,54,32,30.01,29.89,28,10,28,0.00
2013-6-24,98,87,76,74,67,60,91,54,30,30.05,29.90,38,10,40,0.01
2013-6-25,99,89,79,72,65,56,78,49,25,30.01,29.85,36,12,36,0.01
2013-6-26,100,89,78,72,68,61,77,51,32,29.98,29.88,24,10,25,0.01
2013-6-27,102,90,79,73,66,57,76,48,24,30.06,29.89,15,6,16,0.89
2013-6-28,104,90,76,69,62,50,76,43,18,30.00,29.86,17,4,17,0.01
2013-6-29,99,88,75,71,63,50,81,47,21,29.96,29.84,18,4,18,0.08
2013-6-30,95,84,74,68,58,48,77,43,22,30.00,29.88,20,5,22,0.36
2013-7-1,88,79,69,60,55,48,70,47,26,30.09,29.98,21,6,21,0.00
2013-7-2,90,79,66,60,50,38,74,41,18,30.14,30.04,24,4,24,0.02
2013-7-3,93,79,62,61,51,39,82,44,16,30.10,29.97,17,2,20,0.24
2013-7-4,98,85,73,65,54,33,71,40,12,30.03,29.89,21,5,22,0.02
2013-7-5,99,86,71,66,55,41,78,40,14,30.02,29.86,19,6,19,0.07
2013-7-6,98,87,76,67,59,47,70,42,19,29.98,29.87,20,6,21,0.01
2013-7-7,99,88,76,71,64,55,76,48,25,30.03,29.93,20,6,21,0.01
2013-7-8,98,88,79,75,69,62,87,57,31,30.12,29.99,20,8,22,0.01
2013-7-9,101,90,80,73,63,50,77,45,18,30.16,29.99,20,8,21,0.01
2013-7-10,103,92,82,73,63,49,71,42,16,30.11,29.92,16,6,19,0.02
2013-7-11,104,90,82,73,67,55,74,50,21,30.02,29.89,25,4,29,0.02
2013-7-12,103,90,76,72,65,52,87,50,19,30.00,29.89,18,4,18,0.08
2013-7-13,103,92,79,71,63,51,75,42,19,30.04,29.88,16,5,17,0.00
2013-7-14,87,74,70,73,68,59,100,85,42,30.04,29.90,23,5,24,1.52
2013-7-15,75,72,69,75,72,69,100,100,100,30.11,30.00,13,4,15,1.28
2013-7-16,84,78,74,80,76,71,100,94,73,30.22,30.08,17,5,20,0.70
2013-7-17,86,78,72,81,75,68,100,92,67,30.25,30.17,38,4,38,0.31
2013-7-18,94,83,74,81,72,63,100,75,39,30.22,30.04,15,2,15,0.00
2013-7-19,96,85,75,79,71,61,100,66,34,30.09,29.95,18,4,21,0.00
2013-7-20,96,84,76,77,72,64,100,71,36,30.03,29.88,22,5,23,0.03
2013-7-21,97,86,76,78,72,64,100,67,36,29.97,29.86,20,6,20,0.00
2013-7-22,97,87,78,79,74,66,100,67,38,30.01,29.89,17,7,17,0.00
2013-7-23,98,89,81,77,72,65,86,59,39,30.01,29.86,19,8,20,0.00
2013-7-24,97,87,80,77,72,66,89,62,38,30.06,29.90,21,5,21,0.00
2013-7-25,95,87,77,77,73,64,98,67,42,30.07,30.00,17,4,17,0.00
2013-7-26,98,87,80,75,72,67,77,62,40,30.05,29.90,21,7,22,0.00
2013-7-27,92,81,73,74,67,56,96,65,33,30.08,29.93,26,5,26,0.00
2013-7-28,93,82,70,73,68,61,100,67,37,30.02,29.89,16,5,18,0.00
2013-7-29,97,88,79,77,70,61,93,60,35,30.01,29.93,23,9,29,0.00
2013-7-30,99,88,79,74,69,62,81,55,34,30.11,29.98,21,8,21,0.00
2013-7-31,102,90,81,74,68,61,70,50,27,30.10,29.95,14,5,18,0.00
2013-8-1,102,90,79,78,72,64,90,57,29,30.05,29.91,12,2,17,0.00
2013-8-2,101,91,80,72,66,58,74,47,26,29.99,29.89,19,6,19,0.00
2013-8-3,100,89,80,71,66,0,75,48,27,30.03,29.94,18,6,18,0.00
2013-8-4,99,89,80,74,68,59,78,51,27,30.10,29.95,16,6,20,0.00
2013-8-5,101,90,81,72,65,56,72,46,24,30.04,29.86,17,6,20,0.00
2013-8-6,103,92,80,72,64,51,75,43,19,29.95,29.80,20,8,20,0.00
2013-8-7,104,93,81,72,65,54,73,44,21,29.92,29.78,19,8,19,0.00
2013-8-8,101,89,82,78,68,57,78,51,24,29.92,29.79,15,5,16,0.01
2013-8-9,103,89,79,74,66,52,78,50,20,30.01,29.86,21,4,21,0.01
2013-8-10,98,88,77,78,70,64,96,59,34,30.10,29.99,15,4,21,0.24
2013-8-11,102,89,77,73,68,58,83,53,25,30.11,29.96,18,4,22,0.24
2013-8-12,100,89,79,73,68,58,80,53,27,30.09,29.94,21,5,22,0.17
2013-8-13,99,88,81,78,70,64,80,57,36,30.04,29.91,21,4,21,0.22
2013-8-14,92,83,78,78,73,66,96,75,43,30.07,29.95,15,6,20,0.00
2013-8-15,91,82,76,78,72,67,100,73,48,30.08,29.97,20,5,20,0.00
2013-8-16,91,80,69,73,66,59,100,66,36,30.13,29.98,22,5,22,0.17
2013-8-17,92,80,68,66,61,54,86,55,29,30.13,30.00,16,4,18,0.00
2013-8-18,94,82,70,65,61,56,76,51,28,30.13,30.01,17,4,18,0.00
2013-8-19,97,84,72,64,58,50,70,44,22,30.09,29.95,16,4,17,0.00
2013-8-20,97,86,73,66,58,46,73,43,18,30.06,29.97,18,4,18,0.00
2013-8-21,96,85,75,71,66,59,84,55,33,30.11,30.00,15,5,16,0.00
2013-8-22,98,89,79,72,66,59,75,50,29,30.13,29.95,17,5,17,0.00
2013-8-23,101,90,79,73,66,56,78,49,24,30.06,29.91,19,5,19,0.00
2013-8-24,101,89,78,72,66,54,72,49,22,30.08,29.98,18,4,18,0.03
2013-8-25,99,89,79,71,65,57,74,48,26,30.16,30.05,21,6,26,0.00
2013-8-26,98,86,76,72,66,58,81,54,28,30.19,30.05,21,8,22,0.00
2013-8-27,92,81,76,77,71,65,99,72,42,30.15,30.05,30,7,32,0.00
2013-8-28,99,86,73,75,65,47,98,57,22,30.13,30.00,15,4,16,0.00
2013-8-29,102,89,75,69,62,48,78,45,18,30.12,29.97,13,2,13,0.00
2013-8-30,104,90,76,68,59,46,71,41,15,30.04,29.87,13,2,15,0.00
2013-8-31,106,101,93,64,52,42,37,20,12,29.93,29.80,14,4,15,0.00
2013-9-1,106,97,86,68,59,49,55,31,16,29.92,29.78,19,5,19,0.00
2013-9-2,92,82,74,80,74,66,100,80,49,30.05,29.86,20,3,20,0.72
2013-9-3,98,87,78,79,67,56,95,56,25,30.03,29.90,12,3,13,0.00
2013-9-4,102,88,72,71,64,51,92,50,21,30.07,29.95,28,4,28,0.00
2013-9-5,101,89,78,73,66,53,80,51,22,30.13,30.00,13,4,16,0.00
2013-9-6,100,88,76,73,66,52,85,51,24,30.13,29.96,17,3,18,0.00
2013-9-7,100,88,78,73,65,50,82,50,19,30.07,29.93,23,5,26,0.00
2013-9-8,97,85,72,76,67,58,100,60,30,30.02,29.88,21,6,21,0.00
2013-9-9,95,84,74,73,67,58,96,59,31,30.03,29.92,29,7,29,0.00
2013-9-10,93,83,78,75,70,63,93,67,40,30.12,30.02,24,6,24,0.00
2013-9-11,97,85,73,73,65,53,94,57,27,30.15,30.02,19,5,21,0.00
2013-9-12,96,85,74,72,67,57,82,58,33,30.10,29.95,14,2,15,0.00
2013-9-13,99,86,75,75,65,52,78,52,26,30.00,29.84,18,3,18,0.10
2013-9-14,97,87,78,70,66,57,74,52,28,29.97,29.85,19,7,19,0.00
2013-9-15,96,86,78,72,66,59,80,53,31,30.05,29.95,17,5,19,0.00
2013-9-16,97,87,78,71,65,54,78,51,26,30.11,29.97,17,5,17,0.00
2013-9-17,94,86,78,69,65,58,69,52,32,30.09,29.96,15,3,15,0.00
2013-9-18,97,87,77,72,65,55,82,52,25,30.04,29.87,20,6,22,0.00
2013-9-19,90,82,72,74,70,62,100,70,46,30.02,29.89,29,5,34,1.57
2013-9-20,76,74,71,76,74,70,100,100,98,29.97,29.87,16,6,20,3.26
2013-9-21,84,72,62,71,57,46,100,65,28,30.02,29.89,19,6,20,0.00
2013-9-22,85,72,59,63,57,48,100,64,29,29.96,29.81,13,3,13,0.00
2013-9-23,88,74,62,60,56,49,84,56,27,29.89,29.75,18,4,18,0.00
2013-9-24,94,80,69,70,60,51,96,56,25,29.97,29.86,15,2,18,0.00
2013-9-25,95,79,61,66,58,48,100,56,23,29.93,29.77,14,3,15,0.00
2013-9-26,93,81,70,63,57,49,73,47,23,29.91,29.81,20,6,21,0.00
2013-9-27,88,81,74,75,71,61,98,72,58,29.96,29.84,24,9,24,0.00
2013-9-28,85,77,68,80,73,64,100,87,72,30.10,29.88,24,8,24,0.29
2013-9-29,82,72,64,65,57,46,90,62,29,30.10,29.96,13,3,14,0.00
2013-9-30,87,72,57,64,58,48,100,67,27,29.98,29.83,13,3,13,0.00
2013-10-1,88,77,67,73,66,57,91,72,39,29.95,29.85,19,6,20,0.00
2013-10-2,89,81,76,77,73,69,100,81,53,30.00,29.87,22,9,22,0.00
2013-10-3,91,82,75,77,72,65,100,75,44,29.95,29.81,24,10,24,0.00
2013-10-4,90,81,73,76,71,66,100,74,48,29.94,29.83,20,10,24,0.00
2013-10-5,81,66,52,76,59,43,100,81,51,30.16,29.88,23,7,23,0.24
2013-10-6,78,62,52,56,47,31,100,66,20,30.18,30.08,20,4,21,0.00
2013-10-7,84,67,52,56,48,34,98,58,18,30.18,30.07,11,2,11,0.00
2013-10-8,83,69,56,52,48,43,81,51,27,30.12,29.99,15,5,15,0.00
2013-10-9,83,70,56,59,55,41,91,61,33,30.08,29.97,19,6,20,0.00
2013-10-10,84,73,63,68,62,58,99,71,47,30.06,29.88,20,7,22,0.00
2013-10-11,86,78,71,73,70,63,98,78,58,29.94,29.84,20,8,20,0.00
2013-10-12,91,80,72,80,74,65,100,85,51,30.10,29.90,16,5,16,0.11
2013-10-13,80,74,71,73,71,67,100,90,68,30.23,30.08,17,5,17,0.01
2013-10-14,80,74,71,77,73,70,100,98,82,30.16,29.90,21,8,23,1.17
2013-10-15,77,67,55,77,67,54,100,100,96,30.13,29.91,21,7,21,0.96
2013-10-16,67,60,55,58,53,49,100,80,55,30.14,30.04,16,6,16,0.27
2013-10-17,73,60,47,54,50,43,100,73,38,30.16,30.00,10,2,10,0.00
2013-10-18,70,62,51,64,57,51,100,86,65,30.16,29.91,22,5,23,0.13
2013-10-19,68,54,43,52,46,40,100,76,39,30.26,30.09,21,5,21,0.00
2013-10-20,74,59,46,52,49,45,100,71,42,30.09,29.88,22,7,23,0.00
2013-10-21,72,63,55,64,56,50,98,80,65,30.14,29.90,20,5,24,0.00
2013-10-22,78,62,48,54,49,41,100,69,29,30.20,30.07,10,2,12,0.00
2013-10-23,84,67,51,56,51,40,100,62,21,30.15,30.05,14,2,15,0.00
2013-10-24,84,68,55,56,51,41,92,59,24,30.27,30.10,15,3,15,0.00
2013-10-25,74,63,53,57,53,47,88,71,54,30.40,30.24,18,6,18,0.00
2013-10-26,79,68,60,67,62,56,100,82,60,30.24,30.03,22,8,26,0.47
2013-10-27,71,65,61,66,62,59,100,92,68,30.16,30.03,7,3,12,0.02
2013-10-28,76,68,59,72,66,59,100,93,79,30.10,29.99,20,7,21,0.01
2013-10-29,78,74,70,75,72,70,100,94,84,30.08,29.98,22,10,23,0.00
2013-10-30,77,73,69,77,73,69,100,99,89,30.03,29.80,24,9,24,0.10
2013-10-31,75,69,55,72,55,39,100,67,30,29.90,29.72,18,6,27,0.01
2013-11-1,77,63,52,53,49,37,100,65,26,30.13,29.83,17,4,19,0.00
2013-11-2,70,58,49,48,42,33,91,59,28,30.33,30.13,16,4,16,0.00
2013-11-3,70,58,46,50,45,40,98,65,39,30.24,29.96,26,8,30,0.00
2013-11-4,64,61,57,64,59,50,100,95,64,30.09,29.96,22,8,25,0.26
2013-11-5,71,68,63,71,68,63,100,100,100,30.04,29.92,22,8,26,0.09
2013-11-6,72,57,46,72,51,40,100,80,46,30.39,29.97,29,7,36,0.39
2013-11-7,66,57,45,49,44,37,96,66,35,30.53,30.38,10,2,12,0.00
2013-11-8,67,56,44,52,45,35,100,71,33,30.39,30.12,20,5,21,0.00
2013-11-9,70,62,57,59,54,47,97,74,60,30.21,30.08,23,8,23,0.00
2013-11-10,69,60,53,59,56,53,100,89,70,30.33,30.20,11,4,12,0.00
2013-11-11,76,62,48,60,56,48,100,83,55,30.29,30.17,12,2,12,0.00
2013-11-12,62,50,36,60,39,23,100,69,32,30.70,30.29,26,8,26,0.00
2013-11-13,56,42,30,34,30,27,90,67,37,30.70,30.38,11,3,11,0.00
2013-11-14,62,49,35,48,36,29,91,65,31,30.38,30.00,23,8,23,0.00
2013-11-15,76,62,51,62,55,48,100,81,46,30.00,29.83,17,7,17,0.00
2013-11-16,82,71,62,72,65,60,100,82,50,29.86,29.67,25,9,29,0.00
2013-11-17,89,76,66,72,55,35,100,57,16,30.00,29.71,21,7,22,0.00
2013-11-18,74,65,58,40,36,30,44,34,21,30.18,30.00,21,6,22,0.00
2013-11-19,70,62,56,46,43,38,68,50,35,30.17,29.99,21,7,21,0.00
2013-11-20,69,62,53,64,53,46,100,74,62,30.01,29.87,21,9,21,0.00
2013-11-21,80,66,42,75,65,41,100,96,77,30.25,29.93,24,7,26,0.21
2013-11-22,42,37,34,42,36,34,100,99,93,30.46,30.24,26,10,27,0.09
2013-11-23,43,38,35,41,36,31,100,93,76,30.55,30.45,21,8,21,0.09
2013-11-24,38,36,34,35,31,27,95,82,71,30.58,30.33,19,6,19,0.09
2013-11-25,40,38,35,40,37,34,100,99,96,30.34,30.15,15,3,17,0.51
2013-11-26,54,43,37,40,36,30,100,79,42,30.40,30.18,28,9,30,0.01
2013-11-27,51,39,30,31,26,17,90,64,30,30.50,30.33,19,4,20,0.00
2013-11-28,59,43,32,35,32,27,91,67,31,30.44,30.32,14,4,14,0.00
2013-11-29,61,47,35,47,40,33,95,78,47,30.49,30.32,16,4,16,0.00
2013-11-30,69,56,45,56,52,45,100,88,61,30.34,30.14,23,7,24,0.00
2013-12-1,68,60,54,63,58,54,100,93,74,30.15,29.90,14,4,16,0.00
2013-12-2,75,56,45,62,47,39,100,77,29,29.90,29.66,7,1,7,0.01
2013-12-3,84,63,46,48,42,26,95,56,13,29.66,29.53,16,3,16,0.00
2013-12-4,84,66,50,60,48,39,68,54,29,29.90,29.59,21,4,21,0.00
2013-12-5,50,36,30,39,28,21,100,77,55,30.18,29.89,25,10,25,0.00
2013-12-6,32,28,26,31,26,21,100,91,81,30.52,30.10,22,9,22,0.00
2013-12-7,28,24,21,25,20,15,91,84,79,30.54,30.26,20,7,20,0.00
2013-12-8,43,33,26,37,30,24,100,91,70,30.27,30.02,12,4,12,0.58
2013-12-9,37,34,29,36,31,24,100,91,79,30.43,30.11,16,6,17,0.00
2013-12-10,44,32,21,28,24,20,97,76,44,30.51,30.32,15,3,16,0.03
2013-12-11,49,41,30,35,33,28,90,74,55,30.60,30.31,13,3,14,0.00
2013-12-12,51,40,29,40,35,28,99,83,60,30.59,30.27,11,2,11,0.00
2013-12-13,51,47,43,49,43,38,100,87,76,30.27,29.79,16,7,17,0.00
2013-12-14,51,44,34,51,40,31,100,87,62,30.35,29.78,27,6,27,0.00
2013-12-15,66,46,28,40,34,28,100,70,29,30.35,30.23,12,2,12,0.00
2013-12-16,71,52,37,41,38,34,92,62,28,30.25,30.14,14,4,14,0.00
2013-12-17,75,54,36,46,40,32,99,65,22,30.31,30.20,9,2,9,0.00
2013-12-18,72,57,42,52,46,40,93,70,40,30.27,29.99,20,6,21,0.00
2013-12-19,75,64,56,65,58,52,100,81,57,29.99,29.74,30,10,30,0.00
2013-12-20,69,54,35,68,54,35,100,99,80,29.89,29.76,18,7,18,0.01
2013-12-21,63,48,36,58,45,36,100,91,51,29.84,29.59,17,4,17,1.82
2013-12-22,47,39,32,44,34,30,100,83,61,30.41,29.78,23,7,23,0.00
2013-12-23,52,38,26,36,32,26,100,80,46,30.55,30.39,9,2,9,0.00
2013-12-24,57,42,28,39,34,28,100,78,50,30.55,30.24,22,7,23,0.00
2013-12-25,59,46,38,48,39,35,100,80,46,30.44,30.25,16,5,16,0.00
2013-12-26,59,43,32,41,35,28,100,78,33,30.47,30.33,9,2,9,0.01
2013-12-27,60,44,31,43,38,31,100,81,49,30.48,30.33,8,1,10,0.00
2013-12-28,64,51,38,48,44,38,100,78,47,30.33,29.98,15,4,15,0.00
2013-12-29,50,40,31,50,39,28,100,97,82,30.33,29.95,19,6,22,0.01
2013-12-30,48,36,29,31,28,23,92,72,46,30.43,30.27,16,3,16,0.00
2013-12-31,57,42,26,39,32,25,99,72,39,30.45,30.19,15,5,15,0.00
2014-1-1,73,52,36,49,39,30,94,66,34,30.26,29.88,27,10,28,0.00
2014-1-2,46,35,27,31,25,22,85,68,43,30.51,30.25,26,7,28,0.00